Voyager Of The Seas — C6SE5 — position and weather

sailwx.info

Track history (hours):
 
Tides and Currents Weather Stations Pressure Air Temp Water Temp Dewpoint Dewpoint Depression Visibility Wind Speed Wind Dir Waves Ship Positions

Voyager Of The Seas

Operator: Royal Caribbean Cruises Ltd

Last reported at 2015-Aug-02 09:33 UTC. Time now 2015-Aug-02 10:18 UTC.
Position N 22°16' E 114°15'.

Type: Passenger vessel. MMSI: 311317000.

Date/timePositionNaut miles runAvg speedWind from/ knotsBaromVisibWave heightAir tempDewpointWater temp
2015-Aug-02 09:33N 22°16' E 114°15'3 3.0
2015-Aug-02 08:33N 22°18' E 114°13'0 0.0
2015-Aug-02 07:32N 22°18' E 114°13'0 0.0
2015-Aug-02 06:31N 22°18' E 114°13'0 0.0
2015-Aug-02 05:31N 22°18' E 114°13'0 0.0
2015-Aug-02 04:32N 22°18' E 114°13'0 0.0
2015-Aug-02 03:32N 22°18' E 114°13'0 0.0
2015-Aug-02 02:29N 22°18' E 114°13'0 0.0
2015-Aug-02 01:32N 22°18' E 114°13'0 0.0
2015-Aug-02 00:32N 22°18' E 114°13'0 0.0
2015-Aug-01 23:31N 22°18' E 114°13'0 0.1
2015-Aug-01 22:33N 22°18' E 114°13'9 7.5
2015-Aug-01 21:23N 22°14' E 114°21'30510.9
2015-Jul-31 17:18N 22°26' E 119°50'811.0
2015-Jul-31 16:33N 22°29' E 119°59'1110.5
2015-Jul-31 15:33N 22°32' E 120°10'9 8.5
2015-Jul-31 14:33N 22°34' E 120°19'4 3.5
2015-Jul-31 13:32N 22°37' E 120°17'0 0.0
2015-Jul-31 11:29N 22°37' E 120°17'0 0.0
2015-Jul-31 10:29N 22°37' E 120°17'0 0.0
2015-Jul-31 09:29N 22°37' E 120°17'0 0.0
2015-Jul-31 08:29N 22°37' E 120°17'0 0.0
2015-Jul-31 07:23N 22°37' E 120°17'0 0.1
2015-Jul-31 04:33N 22°37' E 120°17'4 4.2
2015-Jul-31 03:33N 22°32' E 120°16'1312.8
2015-Jul-31 02:33N 22°29' E 120°03'1413.6
2015-Jul-31 01:33N 22°29' E 119°48'29519.5
2015-Jul-30 10:25N 22°13' E 114°29'1315.2
2015-Jul-30 09:34N 22°16' E 114°16'3 3.4
2015-Jul-30 08:33N 22°18' E 114°13'0 0.0
2015-Jul-30 07:33N 22°18' E 114°13'0 0.0
2015-Jul-30 06:33N 22°18' E 114°13'0 0.0
2015-Jul-30 05:33N 22°18' E 114°13'0 0.0
2015-Jul-30 04:33N 22°18' E 114°13'0 0.0
2015-Jul-30 03:33N 22°18' E 114°13'0 0.0
2015-Jul-30 02:33N 22°18' E 114°13'0 0.0
2015-Jul-30 01:33N 22°18' E 114°13'0 0.0
2015-Jul-30 00:33N 22°18' E 114°13'0 0.3
2015-Jul-29 23:34N 22°18' E 114°13'10 9.4
2015-Jul-29 22:32N 22°13' E 114°22'20418.2
2015-Jul-29 11:19N 23°19' E 117°52'3819.5
2015-Jul-29 09:22N 23°40' E 118°26'  
2015-Jul-26 17:11N 24°47' E 119°51'3520.3
2015-Jul-26 15:27N 24°32' E 119°17'5719.4
2015-Jul-26 12:33N 24°14' E 118°18'1615.8
2015-Jul-26 11:32N 24°25' E 118°05'4 4.5
2015-Jul-26 10:33N 24°29' E 118°04'0 0.0
2015-Jul-26 09:27N 24°29' E 118°04'0 0.0
2015-Jul-26 08:15N 24°29' E 118°04'0 0.0
2015-Jul-26 07:27N 24°29' E 118°04'0 0.0
2015-Jul-26 06:33N 24°29' E 118°04'0 0.0
2015-Jul-26 05:21N 24°29' E 118°04'0 0.0
2015-Jul-26 04:33N 24°29' E 118°04'0 0.0
2015-Jul-26 03:09N 24°29' E 118°04'0 0.0
2015-Jul-26 02:33N 24°29' E 118°04'5 4.6
2015-Jul-26 01:32N 24°25' E 118°05'1212.3
2015-Jul-26 00:33N 24°16' E 118°14'1413.8
2015-Jul-25 23:33N 24°03' E 118°20'1313.3
2015-Jul-25 22:33N 23°51' E 118°13'1818.2
2015-Jul-25 21:33N 23°39' E 117°59'22019.9
2015-Jul-25 10:30N 22°13' E 114°19'8 8.5
2015-Jul-25 09:33N 22°18' E 114°13'0 0.0
2015-Jul-25 08:31N 22°18' E 114°13'0 0.0
2015-Jul-25 07:31N 22°18' E 114°13'0 0.0
2015-Jul-25 06:31N 22°18' E 114°13'0 0.1
2015-Jul-25 05:31N 22°18' E 114°13'0 0.1
2015-Jul-25 04:31N 22°18' E 114°13'0 0.0
2015-Jul-25 03:31N 22°18' E 114°13'0 0.0
2015-Jul-25 02:31N 22°18' E 114°13'0 0.0
2015-Jul-25 01:31N 22°18' E 114°13'0 0.1
2015-Jul-25 00:31N 22°18' E 114°13'0 0.0
2015-Jul-24 23:31N 22°18' E 114°13'0 0.1
2015-Jul-24 22:33N 22°18' E 114°13'10 9.4
2015-Jul-24 21:31N 22°13' E 114°22'  
Track history (hours):
 
Tides and Currents Weather Stations Pressure Air Temp Water Temp Dewpoint Dewpoint Depression Visibility Wind Speed Wind Dir Waves Ship Positions

Voyager Of The Seas

Operator: Royal Caribbean Cruises Ltd

Last reported at 2015-Aug-02 09:33 UTC. Time now 2015-Aug-02 10:18 UTC.
Position N 22°16' E 114°15'.

Type: Passenger vessel. MMSI: 311317000.

Date/timePositionNaut miles runAvg speedWind from/ knotsBaromVisibWave heightAir tempDewpointWater temp
2015-Aug-02 09:33N 22°16' E 114°15'3 3.0
2015-Aug-02 08:33N 22°18' E 114°13'0 0.0
2015-Aug-02 07:32N 22°18' E 114°13'0 0.0
2015-Aug-02 06:31N 22°18' E 114°13'0 0.0
2015-Aug-02 05:31N 22°18' E 114°13'0 0.0
2015-Aug-02 04:32N 22°18' E 114°13'0 0.0
2015-Aug-02 03:32N 22°18' E 114°13'0 0.0
2015-Aug-02 02:29N 22°18' E 114°13'0 0.0
2015-Aug-02 01:32N 22°18' E 114°13'0 0.0
2015-Aug-02 00:32N 22°18' E 114°13'0 0.0
2015-Aug-01 23:31N 22°18' E 114°13'0 0.1
2015-Aug-01 22:33N 22°18' E 114°13'9 7.5
2015-Aug-01 21:23N 22°14' E 114°21'30510.9
2015-Jul-31 17:18N 22°26' E 119°50'811.0
2015-Jul-31 16:33N 22°29' E 119°59'1110.5
2015-Jul-31 15:33N 22°32' E 120°10'9 8.5
2015-Jul-31 14:33N 22°34' E 120°19'4 3.5
2015-Jul-31 13:32N 22°37' E 120°17'0 0.0
2015-Jul-31 11:29N 22°37' E 120°17'0 0.0
2015-Jul-31 10:29N 22°37' E 120°17'0 0.0
2015-Jul-31 09:29N 22°37' E 120°17'0 0.0
2015-Jul-31 08:29N 22°37' E 120°17'0 0.0
2015-Jul-31 07:23N 22°37' E 120°17'0 0.1
2015-Jul-31 04:33N 22°37' E 120°17'4 4.2
2015-Jul-31 03:33N 22°32' E 120°16'1312.8
2015-Jul-31 02:33N 22°29' E 120°03'1413.6
2015-Jul-31 01:33N 22°29' E 119°48'29519.5
2015-Jul-30 10:25N 22°13' E 114°29'1315.2
2015-Jul-30 09:34N 22°16' E 114°16'3 3.4
2015-Jul-30 08:33N 22°18' E 114°13'0 0.0
2015-Jul-30 07:33N 22°18' E 114°13'0 0.0
2015-Jul-30 06:33N 22°18' E 114°13'0 0.0
2015-Jul-30 05:33N 22°18' E 114°13'0 0.0
2015-Jul-30 04:33N 22°18' E 114°13'0 0.0
2015-Jul-30 03:33N 22°18' E 114°13'0 0.0
2015-Jul-30 02:33N 22°18' E 114°13'0 0.0
2015-Jul-30 01:33N 22°18' E 114°13'0 0.0
2015-Jul-30 00:33N 22°18' E 114°13'0 0.3
2015-Jul-29 23:34N 22°18' E 114°13'10 9.4
2015-Jul-29 22:32N 22°13' E 114°22'20418.2
2015-Jul-29 11:19N 23°19' E 117°52'3819.5
2015-Jul-29 09:22N 23°40' E 118°26'  
2015-Jul-26 17:11N 24°47' E 119°51'3520.3
2015-Jul-26 15:27N 24°32' E 119°17'5719.4
2015-Jul-26 12:33N 24°14' E 118°18'1615.8
2015-Jul-26 11:32N 24°25' E 118°05'4 4.5
2015-Jul-26 10:33N 24°29' E 118°04'0 0.0
2015-Jul-26 09:27N 24°29' E 118°04'0 0.0
2015-Jul-26 08:15N 24°29' E 118°04'0 0.0
2015-Jul-26 07:27N 24°29' E 118°04'0 0.0
2015-Jul-26 06:33N 24°29' E 118°04'0 0.0
2015-Jul-26 05:21N 24°29' E 118°04'0 0.0
2015-Jul-26 04:33N 24°29' E 118°04'0 0.0
2015-Jul-26 03:09N 24°29' E 118°04'0 0.0
2015-Jul-26 02:33N 24°29' E 118°04'5 4.6
2015-Jul-26 01:32N 24°25' E 118°05'1212.3
2015-Jul-26 00:33N 24°16' E 118°14'1413.8
2015-Jul-25 23:33N 24°03' E 118°20'1313.3
2015-Jul-25 22:33N 23°51' E 118°13'1818.2
2015-Jul-25 21:33N 23°39' E 117°59'22019.9
2015-Jul-25 10:30N 22°13' E 114°19'8 8.5
2015-Jul-25 09:33N 22°18' E 114°13'0 0.0
2015-Jul-25 08:31N 22°18' E 114°13'0 0.0
2015-Jul-25 07:31N 22°18' E 114°13'0 0.0
2015-Jul-25 06:31N 22°18' E 114°13'0 0.1
2015-Jul-25 05:31N 22°18' E 114°13'0 0.1
2015-Jul-25 04:31N 22°18' E 114°13'0 0.0
2015-Jul-25 03:31N 22°18' E 114°13'0 0.0
2015-Jul-25 02:31N 22°18' E 114°13'0 0.0
2015-Jul-25 01:31N 22°18' E 114°13'0 0.1
2015-Jul-25 00:31N 22°18' E 114°13'0 0.0
2015-Jul-24 23:31N 22°18' E 114°13'0 0.1
2015-Jul-24 22:33N 22°18' E 114°13'10 9.4
2015-Jul-24 21:31N 22°13' E 114°22'  

Dump ship's entire track history